createdAt,value
2022-09-07T00:00:50.245Z,96710.22
2022-09-07T00:05:52.916Z,96716.25
2022-09-07T00:11:03.580Z,96720.16
2022-09-07T00:16:08.648Z,96724.19
2022-09-07T00:21:11.732Z,96725.47
2022-09-07T00:26:18.049Z,96734.78
2022-09-07T00:31:22.776Z,96723.44
2022-09-07T00:36:25.450Z,96736.41
2022-09-07T00:41:27.843Z,96708.69
2022-09-07T00:46:35.361Z,96723.22
2022-09-07T00:51:52.867Z,96743.94
2022-09-07T00:56:56.865Z,96741.75
2022-09-07T01:01:59.616Z,96720.66
2022-09-07T01:07:04.079Z,96705.22
2022-09-07T01:12:07.980Z,96706.78
2022-09-07T01:17:32.342Z,96718.53
2022-09-07T01:23:11.887Z,96722.84
2022-09-07T01:28:27.606Z,96710.31
2022-09-07T01:33:38.864Z,96721.56
2022-09-07T01:39:02.755Z,96706.63
2022-09-07T01:44:10.771Z,96705.94
2022-09-07T01:49:21.769Z,96692.34
2022-09-07T01:54:29.728Z,96715.69
2022-09-07T01:59:50.427Z,96704.84
2022-09-07T02:05:08.035Z,96672.38
2022-09-07T02:10:16.673Z,96702.56
2022-09-07T02:15:26.265Z,96692.09
2022-09-07T02:20:53.100Z,96679.59
2022-09-07T02:26:10.865Z,96685.09
2022-09-07T02:31:13.471Z,96689.31
2022-09-07T02:36:22.000Z,96671.19
2022-09-07T02:41:36.020Z,96693.44
2022-09-07T02:47:21.848Z,96695.22
2022-09-07T02:52:47.336Z,96689.75
2022-09-07T02:58:11.010Z,96691.84
2022-09-07T03:03:32.386Z,96703.03
2022-09-07T03:08:45.111Z,96695.38
2022-09-07T03:13:47.412Z,96690.16
2022-09-07T03:18:49.987Z,96682.69
2022-09-07T03:23:53.336Z,96680.44
2022-09-07T03:28:55.672Z,96651.53
2022-09-07T03:33:57.924Z,96681.31
2022-09-07T03:39:00.699Z,96708.91
2022-09-07T03:44:07.170Z,96691.34
2022-09-07T03:49:09.299Z,96696.44
2022-09-07T03:54:11.576Z,96685.19
2022-09-07T03:59:13.889Z,96708.38
2022-09-07T04:04:16.130Z,96714.78
2022-09-07T04:09:18.392Z,96701.63
2022-09-07T04:14:20.690Z,96704.75
2022-09-07T04:19:23.313Z,96705.59
2022-09-07T04:24:25.819Z,96707.69
2022-09-07T04:29:28.121Z,96714.94
2022-09-07T04:34:30.611Z,96719.28
2022-09-07T04:39:32.908Z,96714.16
2022-09-07T04:44:35.637Z,96718.06
2022-09-07T04:49:37.838Z,96742.13
2022-09-07T04:54:40.097Z,96722.25
2022-09-07T04:59:42.382Z,96741.72
2022-09-07T05:04:44.801Z,96728.06
2022-09-07T05:09:47.497Z,96747.91
2022-09-07T05:14:49.809Z,96724.88
2022-09-07T05:19:52.262Z,96744.63
2022-09-07T05:24:54.906Z,96747.91
2022-09-07T05:35:02.417Z,96737.06
2022-09-07T05:40:05.687Z,96742.47
2022-09-07T05:45:08.465Z,96715.47
2022-09-07T05:50:11.678Z,96690.16
2022-09-07T05:55:29.290Z,96676.66
2022-09-07T06:00:32.442Z,96636.56
2022-09-07T06:05:34.747Z,96649.00
2022-09-07T14:13:34.302Z,96424.38
2022-09-07T14:18:37.055Z,96417.75
2022-09-07T14:23:41.861Z,96447.84
2022-09-07T14:28:46.193Z,96444.88
2022-09-07T14:33:57.238Z,96431.69
2022-09-07T14:39:04.304Z,96453.41
2022-09-07T14:44:07.085Z,96447.56
2022-09-07T14:49:21.320Z,96455.97
2022-09-07T14:54:28.229Z,96470.28
2022-09-07T14:59:45.969Z,96463.28
2022-09-07T15:05:10.118Z,96443.56
2022-09-07T15:10:33.495Z,96440.97
2022-09-07T15:15:39.751Z,96447.53
2022-09-07T15:20:44.534Z,96453.19
2022-09-07T15:25:53.695Z,96457.53
2022-09-07T15:36:20.441Z,96448.13
2022-09-07T15:41:24.566Z,96434.75
2022-09-07T15:46:28.044Z,96437.75
2022-09-07T16:13:16.846Z,96440.78
2022-09-07T16:18:39.280Z,96450.94
2022-09-07T16:23:55.281Z,96446.66
2022-09-07T16:28:58.597Z,96433.41
2022-09-07T16:34:02.527Z,96436.66
2022-09-07T16:39:05.025Z,96446.91
2022-09-07T16:44:07.883Z,96447.56
2022-09-07T16:49:11.351Z,96455.94
2022-09-07T16:54:14.665Z,96468.16
2022-09-07T16:59:21.673Z,96453.88
2022-09-07T17:04:24.205Z,96436.03
2022-09-07T17:21:38.084Z,96493.69
2022-09-07T17:26:42.877Z,96503.56
2022-09-07T17:37:09.113Z,96494.97
2022-09-07T17:42:11.484Z,96506.19
2022-09-07T17:47:13.779Z,96512.69
2022-09-07T17:52:15.956Z,96517.50
2022-09-07T17:57:18.024Z,96519.88
2022-09-07T18:02:20.590Z,96537.31
2022-09-07T18:07:22.881Z,96529.28
2022-09-07T18:12:25.114Z,96547.72
2022-09-07T18:17:27.450Z,96543.16
2022-09-07T18:22:29.865Z,96545.91
2022-09-07T18:27:32.312Z,96546.38
2022-09-07T18:32:34.717Z,96565.81
2022-09-07T18:37:38.303Z,96554.06
2022-09-07T18:42:42.556Z,96579.16
2022-09-07T18:47:50.174Z,96569.28
2022-09-07T18:52:53.364Z,96516.47
2022-09-07T18:57:56.188Z,96547.19
2022-09-07T19:02:59.629Z,96551.69
2022-09-07T19:08:04.181Z,96559.56
2022-09-07T19:13:06.683Z,96568.72
2022-09-07T19:18:09.934Z,96571.34
2022-09-07T19:23:12.063Z,96552.25
2022-09-07T19:28:14.872Z,96577.69
2022-09-07T19:33:17.037Z,96570.63
2022-09-07T19:38:43.722Z,96570.63
2022-09-07T19:43:47.251Z,96572.34
2022-09-07T19:48:49.820Z,96524.91
2022-09-07T19:53:52.080Z,96518.91
2022-09-07T19:58:54.878Z,96550.72
2022-09-07T20:04:03.814Z,96547.31
2022-09-07T20:09:08.538Z,96556.44
2022-09-07T20:14:10.954Z,96554.19
2022-09-07T20:19:17.591Z,96547.66
2022-09-07T20:24:22.705Z,96536.47
2022-09-07T20:29:29.076Z,96533.47
2022-09-07T20:34:32.338Z,96541.63
2022-09-07T20:39:38.927Z,96532.94
2022-09-07T20:44:41.645Z,96531.56
2022-09-07T20:49:44.104Z,96560.34
2022-09-07T20:54:46.395Z,96533.50
2022-09-07T20:59:48.713Z,96548.63
2022-09-07T21:04:51.354Z,96530.91
2022-09-07T21:09:53.592Z,96552.59
2022-09-07T21:14:55.907Z,96557.66
2022-09-07T21:19:58.049Z,96546.66
2022-09-07T21:25:00.334Z,96546.25
2022-09-07T21:30:02.614Z,96562.91
2022-09-07T21:35:05.057Z,96568.50
2022-09-07T21:40:08.179Z,96554.16
2022-09-07T21:45:12.738Z,96575.00
2022-09-07T21:50:14.974Z,96552.34
2022-09-07T21:55:17.394Z,96568.34
2022-09-07T22:00:19.760Z,96564.34
2022-09-07T22:05:22.287Z,96550.56
2022-09-07T22:10:24.563Z,96556.88
2022-09-07T22:15:26.871Z,96563.59
2022-09-07T22:20:28.947Z,96536.69
2022-09-07T22:25:31.905Z,96533.84
2022-09-07T22:30:34.103Z,96546.69
2022-09-07T22:35:36.180Z,96538.16
2022-09-07T22:40:38.534Z,96541.94
2022-09-07T22:45:40.632Z,96544.75
2022-09-07T22:50:42.985Z,96542.63
2022-09-07T22:55:45.447Z,96529.84
2022-09-07T23:00:47.715Z,96534.31
2022-09-07T23:05:49.903Z,96539.50
2022-09-07T23:10:52.455Z,96539.00
2022-09-07T23:43:32.756Z,96501.22
2022-09-07T23:48:35.216Z,96510.91
2022-09-07T23:53:37.402Z,96500.22
2022-09-07T23:58:39.538Z,96496.59
